createdAt,value
2018-04-25T00:00:17.299Z,1001.1
2018-04-25T00:01:19.691Z,1001.1
2018-04-25T00:02:22.070Z,1001.1
2018-04-25T00:03:24.465Z,1001
2018-04-25T00:04:26.836Z,1001
2018-04-25T00:05:29.222Z,1001
2018-04-25T00:06:31.893Z,1000.9
2018-04-25T00:07:34.269Z,1000.9
2018-04-25T00:08:36.954Z,1000.8
2018-04-25T00:09:39.339Z,1000.9
2018-04-25T00:10:41.715Z,1000.8
2018-04-25T00:11:44.102Z,1000.8
2018-04-25T00:12:46.482Z,1000.7
2018-04-25T00:13:48.872Z,1000.7
2018-04-25T00:14:51.262Z,1000.7
2018-04-25T00:15:53.706Z,1000.7
2018-04-25T00:16:56.371Z,1000.6
2018-04-25T00:17:58.755Z,1000.6
2018-04-25T00:19:01.137Z,1000.6
2018-04-25T00:20:03.512Z,1000.5
2018-04-25T00:21:05.894Z,1000.5
2018-04-25T00:22:08.280Z,1000.5
2018-04-25T00:23:10.669Z,1000.5
2018-04-25T00:24:13.062Z,1000.6
2018-04-25T00:25:15.822Z,1000.5
2018-04-25T00:26:18.222Z,1000.5
2018-04-25T00:27:21.178Z,1000.5
2018-04-25T00:28:23.571Z,1000.5
2018-04-25T00:29:25.954Z,1000.4
2018-04-25T00:30:28.325Z,1000.5
2018-04-25T00:31:30.716Z,1000.5
2018-04-25T00:32:33.104Z,1000.5
2018-04-25T00:33:36.170Z,1000.4
2018-04-25T00:34:38.826Z,1000.5
2018-04-25T00:35:41.200Z,1000.4
2018-04-25T00:36:43.576Z,1000.4
2018-04-25T00:37:45.979Z,1000.4
2018-04-25T00:38:48.364Z,1000.4
2018-04-25T00:39:50.742Z,1000.3
2018-04-25T00:40:53.116Z,1000.3
2018-04-25T00:41:55.509Z,1000.3
2018-04-25T00:42:57.890Z,1000.3
2018-04-25T00:44:00.292Z,1000.3
2018-04-25T00:45:02.680Z,1000.3
2018-04-25T00:46:05.060Z,1000.3
2018-04-25T00:47:07.433Z,1000.3
2018-04-25T00:48:09.827Z,1000.2
2018-04-25T00:49:12.200Z,1000.2
2018-04-25T00:50:14.593Z,1000.2
2018-04-25T00:51:16.976Z,1000.2
2018-04-25T00:52:19.355Z,1000.2
2018-04-25T00:53:21.742Z,1000.2
2018-04-25T00:54:24.415Z,1000.2
2018-04-25T00:55:27.081Z,1000.2
2018-04-25T00:56:29.469Z,1000.1
2018-04-25T00:57:31.852Z,1000.2
2018-04-25T00:58:34.520Z,1000.1
2018-04-25T00:59:37.188Z,1000
2018-04-25T01:00:39.576Z,1000
2018-04-25T01:01:42.227Z,1000
2018-04-25T01:02:44.615Z,999.9
2018-04-25T01:03:47.644Z,999.8
2018-04-25T01:04:50.323Z,999.9
2018-04-25T01:05:52.704Z,999.9
2018-04-25T01:06:55.077Z,999.8
2018-04-25T01:07:57.467Z,999.8
2018-04-25T01:09:00.411Z,999.8
2018-04-25T01:10:02.787Z,999.9
2018-04-25T01:11:05.184Z,999.8
2018-04-25T01:12:07.566Z,999.9
2018-04-25T01:13:09.934Z,999.8
2018-04-25T01:14:12.321Z,999.8
2018-04-25T01:15:15.002Z,999.8
2018-04-25T01:16:17.380Z,999.8
2018-04-25T01:17:19.771Z,999.9
2018-04-25T01:18:22.140Z,999.9
2018-04-25T01:19:24.521Z,999.9
2018-04-25T01:20:26.915Z,999.9
2018-04-25T01:21:29.289Z,999.8
2018-04-25T01:22:31.660Z,999.7
2018-04-25T01:23:34.040Z,999.6
2018-04-25T01:24:36.812Z,999.5
2018-04-25T01:25:39.197Z,999.4
2018-04-25T01:26:41.573Z,999.2
2018-04-25T01:27:43.962Z,999.2
2018-04-25T01:28:46.336Z,999.3
2018-04-25T01:29:49.018Z,999.3
2018-04-25T01:30:51.396Z,999.2
2018-04-25T01:31:53.776Z,999.2
2018-04-25T01:32:56.154Z,999.3
2018-04-25T01:33:58.825Z,999.3
2018-04-25T01:35:01.202Z,999.3
2018-04-25T01:36:04.261Z,999.2
2018-04-25T01:37:06.913Z,999.2
2018-04-25T01:38:09.959Z,999.2
2018-04-25T01:39:12.337Z,999.2
2018-04-25T01:40:14.715Z,999.1
2018-04-25T01:41:17.097Z,999.1
2018-04-25T01:42:19.487Z,999
2018-04-25T01:43:22.174Z,999
2018-04-25T01:44:24.558Z,999
2018-04-25T01:45:27.208Z,999
2018-04-25T01:46:29.966Z,998.9
2018-04-25T01:47:32.343Z,998.9
2018-04-25T01:48:35.107Z,998.9
2018-04-25T01:49:38.448Z,998.9
2018-04-25T01:50:40.821Z,998.9
2018-04-25T01:51:43.206Z,998.9
2018-04-25T01:52:45.590Z,998.8
2018-04-25T01:53:47.959Z,998.8
2018-04-25T01:54:50.360Z,998.8
2018-04-25T01:55:52.735Z,998.8
2018-04-25T01:56:55.117Z,998.7
2018-04-25T01:57:58.168Z,998.7
2018-04-25T01:59:00.552Z,998.7
2018-04-25T02:00:03.225Z,998.6
2018-04-25T02:01:05.982Z,998.6
2018-04-25T02:02:08.737Z,998.6
2018-04-25T02:03:11.423Z,998.6
2018-04-25T02:04:13.800Z,998.6
2018-04-25T02:05:16.170Z,998.5
2018-04-25T02:06:18.556Z,998.5
2018-04-25T02:07:21.501Z,998.5
2018-04-25T02:08:23.885Z,998.4
2018-04-25T02:09:26.273Z,998.4
2018-04-25T02:10:28.668Z,998.4
2018-04-25T02:11:31.428Z,998.4
2018-04-25T02:12:33.809Z,998.3
2018-04-25T02:13:36.196Z,998.3
2018-04-25T02:14:38.569Z,998.3
2018-04-25T02:15:40.947Z,998.3
2018-04-25T02:16:43.609Z,998.3
2018-04-25T02:17:45.981Z,998.3
2018-04-25T02:18:49.037Z,998.2
2018-04-25T02:19:51.693Z,998.1
2018-04-25T02:20:54.075Z,998.2
2018-04-25T02:21:56.743Z,998.2
2018-04-25T02:22:59.127Z,998
2018-04-25T02:24:01.509Z,998.1
2018-04-25T02:25:04.173Z,998
2018-04-25T02:26:06.553Z,998.1
2018-04-25T02:27:08.940Z,998
2018-04-25T02:28:11.314Z,998
2018-04-25T02:29:14.293Z,997.9
2018-04-25T02:30:16.666Z,997.9
2018-04-25T02:31:19.036Z,998
2018-04-25T02:32:21.421Z,997.9
2018-04-25T02:33:24.381Z,998
2018-04-25T02:34:27.045Z,997.9
2018-04-25T02:35:29.433Z,997.9
2018-04-25T02:36:31.805Z,997.8
2018-04-25T02:37:34.759Z,997.8
2018-04-25T02:38:37.147Z,997.7
2018-04-25T02:39:39.526Z,997.7
2018-04-25T02:40:43.059Z,997.7
2018-04-25T02:41:45.748Z,997.7
2018-04-25T02:42:48.136Z,997.7
2018-04-25T02:43:50.784Z,997.7
2018-04-25T02:44:53.835Z,997.6
2018-04-25T02:45:56.219Z,997.6
2018-04-25T02:46:58.985Z,997.5
2018-04-25T02:48:01.659Z,997.6
2018-04-25T02:49:04.040Z,997.5
2018-04-25T02:50:06.420Z,997.5
2018-04-25T02:51:08.817Z,997.4
2018-04-25T02:52:11.487Z,997.4
2018-04-25T02:53:13.859Z,997.3
2018-04-25T02:54:16.248Z,997.3
2018-04-25T02:55:19.477Z,997.3
2018-04-25T02:56:21.851Z,997.3
2018-04-25T02:57:25.460Z,997.3
2018-04-25T02:58:27.836Z,997.3
2018-04-25T02:59:30.874Z,997.2
2018-04-25T03:00:33.554Z,997.2
2018-04-25T03:01:35.913Z,997.3
2018-04-25T03:02:38.298Z,997.2
2018-04-25T03:03:40.685Z,997.2
2018-04-25T03:04:43.448Z,997.2
2018-04-25T03:05:45.830Z,997.2
2018-04-25T03:06:48.210Z,997.1
2018-04-25T03:07:50.593Z,997.1
2018-04-25T03:08:52.983Z,997
2018-04-25T03:09:55.636Z,997
2018-04-25T03:10:58.316Z,997
2018-04-25T03:12:00.982Z,997
2018-04-25T03:13:03.754Z,996.9
2018-04-25T03:14:06.804Z,996.9
2018-04-25T03:15:09.484Z,996.9
2018-04-25T03:16:11.828Z,996.9
2018-04-25T03:17:14.498Z,996.8
2018-04-25T03:18:16.879Z,996.9
2018-04-25T03:19:19.549Z,996.9
2018-04-25T03:20:21.924Z,996.8
2018-04-25T03:21:24.302Z,996.8
2018-04-25T03:22:26.993Z,996.8
2018-04-25T03:23:29.344Z,996.8
2018-04-25T03:24:31.722Z,996.7
2018-04-25T03:25:34.379Z,996.7
2018-04-25T03:26:37.054Z,996.7
2018-04-25T03:27:39.714Z,996.7
2018-04-25T03:28:42.109Z,996.7
2018-04-25T03:29:44.473Z,996.7
2018-04-25T03:30:47.131Z,996.6
2018-04-25T03:31:51.058Z,996.6
2018-04-25T03:32:53.446Z,996.6
2018-04-25T03:33:55.821Z,996.6
2018-04-25T03:34:58.215Z,996.6
2018-04-25T03:36:00.596Z,996.5
2018-04-25T03:37:02.979Z,996.5
2018-04-25T03:38:05.353Z,996.5
2018-04-25T03:39:07.733Z,996.4
2018-04-25T03:40:10.396Z,996.4
2018-04-25T03:41:13.050Z,996.3
2018-04-25T03:42:15.426Z,996.3
2018-04-25T03:43:17.814Z,996.3
2018-04-25T03:44:20.197Z,996.3
2018-04-25T03:45:22.863Z,996.3
2018-04-25T03:46:25.807Z,996.2
2018-04-25T03:47:28.475Z,996.3
2018-04-25T03:48:30.867Z,996.3
2018-04-25T03:49:33.252Z,996.3
2018-04-25T03:50:35.618Z,996.2
2018-04-25T03:51:38.279Z,996.2
2018-04-25T03:52:40.664Z,996.2
2018-04-25T03:53:43.039Z,996.3
2018-04-25T03:54:45.420Z,996.3
2018-04-25T03:55:47.799Z,996.3
2018-04-25T03:56:50.179Z,996.3
2018-04-25T03:57:52.873Z,996.3
2018-04-25T03:58:55.249Z,996.3
2018-04-25T03:59:57.626Z,996.3
2018-04-25T04:01:00.019Z,996.2
2018-04-25T04:02:02.393Z,996.2
2018-04-25T04:03:04.769Z,996.2
2018-04-25T04:04:07.149Z,996.2
2018-04-25T04:05:09.524Z,996.1
2018-04-25T04:06:11.924Z,996
2018-04-25T04:07:14.270Z,996
2018-04-25T04:08:16.647Z,995.9
2018-04-25T04:09:19.311Z,996
2018-04-25T04:10:21.981Z,996
2018-04-25T04:11:24.360Z,996
2018-04-25T04:12:26.738Z,996
2018-04-25T04:13:29.120Z,996
2018-04-25T04:14:31.513Z,995.9
2018-04-25T04:15:33.890Z,995.9
2018-04-25T04:16:36.664Z,995.9
2018-04-25T04:17:39.040Z,995.9
2018-04-25T04:18:41.437Z,995.9
2018-04-25T04:19:43.818Z,995.9
2018-04-25T04:20:46.585Z,995.9
2018-04-25T04:21:48.963Z,995.9
2018-04-25T04:22:51.943Z,995.9
2018-04-25T04:23:54.312Z,995.8
2018-04-25T04:24:57.418Z,995.9
2018-04-25T04:26:00.238Z,995.9
2018-04-25T04:27:02.623Z,995.9
2018-04-25T04:28:05.003Z,995.9
2018-04-25T04:29:07.381Z,995.8
2018-04-25T04:30:09.764Z,995.8
2018-04-25T04:31:12.145Z,995.8
2018-04-25T04:32:14.535Z,995.8
2018-04-25T04:33:16.909Z,995.8
2018-04-25T04:34:19.287Z,995.7
2018-04-25T04:35:21.678Z,995.7
2018-04-25T04:36:24.343Z,995.7
2018-04-25T04:37:26.720Z,995.7
2018-04-25T04:38:29.409Z,995.7
2018-04-25T04:39:32.064Z,995.7
2018-04-25T04:40:34.455Z,995.7
2018-04-25T04:41:37.397Z,995.6
2018-04-25T04:42:39.795Z,995.7
2018-04-25T04:43:42.166Z,995.7
2018-04-25T04:44:44.545Z,995.6
2018-04-25T04:45:46.928Z,995.6
2018-04-25T04:46:49.314Z,995.6
2018-04-25T04:47:51.694Z,995.6
2018-04-25T04:48:54.088Z,995.6
2018-04-25T04:49:56.459Z,995.6
2018-04-25T04:50:59.151Z,995.6
2018-04-25T04:52:01.912Z,995.5
2018-04-25T04:53:04.302Z,995.5
2018-04-25T04:54:06.686Z,995.6
2018-04-25T04:55:09.074Z,995.6
2018-04-25T04:56:11.459Z,995.5
2018-04-25T04:57:13.847Z,995.6
2018-04-25T04:58:16.515Z,995.5
2018-04-25T04:59:19.266Z,995.5
2018-04-25T05:00:21.652Z,995.5
2018-04-25T05:01:24.020Z,995.5
2018-04-25T05:02:26.698Z,995.5
2018-04-25T05:03:29.063Z,995.6
2018-04-25T05:04:31.439Z,995.5
2018-04-25T05:05:33.827Z,995.5
2018-04-25T05:06:36.220Z,995.5
2018-04-25T05:07:38.601Z,995.6
2018-04-25T05:08:41.307Z,995.6
2018-04-25T05:09:44.598Z,995.5
2018-04-25T05:10:46.992Z,995.5
2018-04-25T05:11:49.763Z,995.5
2018-04-25T05:12:52.140Z,995.5
2018-04-25T05:13:54.811Z,995.4
2018-04-25T05:14:57.181Z,995.4
2018-04-25T05:15:59.841Z,995.5
2018-04-25T05:17:02.507Z,995.4
2018-04-25T05:18:04.882Z,995.4
2018-04-25T05:19:07.263Z,995.5
2018-04-25T05:20:09.646Z,995.5
2018-04-25T05:21:12.031Z,995.5
2018-04-25T05:22:14.408Z,995.5
2018-04-25T05:23:16.794Z,995.5
2018-04-25T05:24:19.898Z,995.5
2018-04-25T05:25:22.628Z,995.5
2018-04-25T05:26:25.011Z,995.5
2018-04-25T05:27:27.391Z,995.5
2018-04-25T05:28:29.776Z,995.5
2018-04-25T05:29:32.151Z,995.5
2018-04-25T05:30:34.911Z,995.4
2018-04-25T05:31:37.297Z,995.3
2018-04-25T05:32:39.954Z,995.3
2018-04-25T05:33:42.332Z,995.4
2018-04-25T05:34:44.714Z,995.3
2018-04-25T05:35:47.482Z,995.3
2018-04-25T05:36:49.870Z,995.3
2018-04-25T05:37:52.542Z,995.3
2018-04-25T05:38:54.923Z,995.3
2018-04-25T05:39:57.304Z,995.1
2018-04-25T05:41:00.058Z,995.2
2018-04-25T05:42:02.492Z,995.1
2018-04-25T05:43:04.875Z,995.2
2018-04-25T05:44:07.256Z,995.2
2018-04-25T05:45:09.918Z,995.2
2018-04-25T05:46:12.302Z,995.2
2018-04-25T05:47:14.692Z,995.1
2018-04-25T05:48:17.089Z,995.1
2018-04-25T05:49:19.452Z,995
2018-04-25T05:50:21.843Z,995.1
2018-04-25T05:51:24.823Z,995.2
2018-04-25T05:52:27.487Z,995.2
2018-04-25T05:53:29.871Z,995.1
2018-04-25T05:54:32.253Z,995
2018-04-25T05:55:34.632Z,995
2018-04-25T05:56:37.029Z,995
2018-04-25T05:57:39.409Z,995
2018-04-25T05:58:42.185Z,995.1
2018-04-25T05:59:44.565Z,995
2018-04-25T06:00:46.945Z,995
2018-04-25T06:01:50.558Z,995.1
2018-04-25T06:02:52.953Z,995.1
2018-04-25T06:03:55.603Z,995.1
2018-04-25T06:04:57.996Z,995.1
2018-04-25T06:06:00.388Z,995
2018-04-25T06:07:02.768Z,995
2018-04-25T06:08:05.568Z,995
2018-04-25T06:09:07.957Z,995.1
2018-04-25T06:10:10.337Z,995.1
2018-04-25T06:11:13.003Z,995
2018-04-25T06:12:15.776Z,995.1
2018-04-25T06:13:18.168Z,995.1
2018-04-25T06:14:20.545Z,995
2018-04-25T06:15:22.940Z,995
2018-04-25T06:16:25.319Z,994.9
2018-04-25T06:17:27.711Z,994.9
2018-04-25T06:18:30.085Z,994.9
2018-04-25T06:19:32.770Z,994.9
2018-04-25T06:20:35.134Z,995
2018-04-25T06:21:37.531Z,995
2018-04-25T06:22:39.914Z,994.9
2018-04-25T06:23:42.306Z,994.8
2018-04-25T06:24:44.688Z,994.8
2018-04-25T06:25:47.078Z,994.8
2018-04-25T06:26:50.016Z,994.7
2018-04-25T06:27:52.424Z,994.7
2018-04-25T06:28:54.781Z,994.8
2018-04-25T06:29:57.175Z,994.8
2018-04-25T06:30:59.841Z,994.8
2018-04-25T06:32:02.230Z,994.8
2018-04-25T06:33:04.891Z,994.9
2018-04-25T06:34:07.277Z,994.8
2018-04-25T06:35:09.934Z,994.8
2018-04-25T06:36:12.601Z,994.7
2018-04-25T06:37:15.287Z,994.7
2018-04-25T06:38:17.673Z,994.7
2018-04-25T06:39:20.114Z,994.7
2018-04-25T06:40:22.434Z,994.6
2018-04-25T06:41:24.822Z,994.5
2018-04-25T06:42:27.206Z,994.6
2018-04-25T06:43:29.604Z,994.5
2018-04-25T06:44:31.988Z,994.5
2018-04-25T06:45:34.365Z,994.5
2018-04-25T06:46:37.050Z,994.6
2018-04-25T06:47:39.431Z,994.5
2018-04-25T06:48:41.801Z,994.4
2018-04-25T06:49:44.194Z,994.5
2018-04-25T06:50:46.640Z,994.4
2018-04-25T06:51:48.962Z,994.4
2018-04-25T06:52:51.353Z,994.3
2018-04-25T06:53:53.721Z,994.3
2018-04-25T06:54:56.099Z,994.3
2018-04-25T06:55:58.475Z,994.3
2018-04-25T06:57:00.867Z,994.3
2018-04-25T06:58:03.258Z,994.2
2018-04-25T06:59:05.931Z,994.2
2018-04-25T07:00:08.317Z,994.3
2018-04-25T07:01:10.717Z,994.2
2018-04-25T07:02:13.391Z,994.2
2018-04-25T07:03:15.779Z,994.1
2018-04-25T07:04:18.549Z,994.1
2018-04-25T07:05:20.937Z,994.1
2018-04-25T07:06:23.890Z,994.1
2018-04-25T07:07:26.272Z,994
2018-04-25T07:08:28.665Z,994.1
2018-04-25T07:09:31.049Z,994
2018-04-25T07:10:33.730Z,994
2018-04-25T07:11:36.126Z,994
2018-04-25T07:12:38.779Z,994
2018-04-25T07:13:41.557Z,994
2018-04-25T07:14:43.940Z,994.1
2018-04-25T07:15:46.342Z,994
2018-04-25T07:16:48.725Z,994
2018-04-25T07:17:51.104Z,994
2018-04-25T07:18:53.490Z,994
2018-04-25T07:19:55.888Z,994
2018-04-25T07:20:58.268Z,994
2018-04-25T07:22:00.663Z,994
2018-04-25T07:23:03.053Z,993.9
2018-04-25T07:24:05.430Z,993.9
2018-04-25T07:25:07.830Z,993.9
2018-04-25T07:26:10.603Z,993.9
2018-04-25T07:27:12.997Z,993.8
2018-04-25T07:28:15.388Z,993.8
2018-04-25T07:29:17.771Z,993.8
2018-04-25T07:30:20.163Z,993.8
2018-04-25T07:31:22.542Z,993.8
2018-04-25T07:32:24.927Z,993.8
2018-04-25T07:33:27.307Z,993.8
2018-04-25T07:34:30.387Z,993.8
2018-04-25T07:35:32.771Z,993.9
2018-04-25T07:36:35.150Z,993.8
2018-04-25T07:37:37.532Z,993.8
2018-04-25T07:38:39.928Z,993.9
2018-04-25T07:39:42.308Z,993.8
2018-04-25T07:40:44.981Z,993.8
2018-04-25T07:41:47.454Z,993.8
2018-04-25T07:42:50.604Z,993.9
2018-04-25T07:43:52.990Z,993.8
2018-04-25T07:44:55.381Z,993.7
2018-04-25T07:45:58.043Z,993.7
2018-04-25T07:47:00.438Z,993.8
2018-04-25T07:48:02.832Z,993.7
2018-04-25T07:49:05.212Z,993.7
2018-04-25T07:50:07.600Z,993.7
2018-04-25T07:51:09.989Z,993.7
2018-04-25T07:52:12.463Z,993.8
2018-04-25T07:53:14.771Z,993.7
2018-04-25T07:54:17.155Z,993.8
2018-04-25T07:55:19.825Z,993.7
2018-04-25T07:56:22.222Z,993.7
2018-04-25T07:57:24.617Z,993.6
2018-04-25T07:58:27.582Z,993.6
2018-04-25T07:59:30.257Z,993.6
2018-04-25T08:00:32.938Z,993.7
2018-04-25T08:01:35.327Z,993.6
2018-04-25T08:02:37.995Z,993.6
2018-04-25T08:03:40.762Z,993.6
2018-04-25T08:04:43.158Z,993.5
2018-04-25T08:05:45.546Z,993.5
2018-04-25T08:06:47.935Z,993.5
2018-04-25T08:07:50.325Z,993.6
2018-04-25T08:08:53.092Z,993.5
2018-04-25T08:09:55.488Z,993.5
2018-04-25T08:10:57.868Z,993.5
2018-04-25T08:12:00.644Z,993.5
2018-04-25T08:13:03.310Z,993.4
2018-04-25T08:14:05.695Z,993.3
2018-04-25T08:15:08.091Z,993.4
2018-04-25T08:16:10.863Z,993.4
2018-04-25T08:17:13.248Z,993.4
2018-04-25T08:18:15.649Z,993.4
2018-04-25T08:19:18.030Z,993.3
2018-04-25T08:20:20.802Z,993.4
2018-04-25T08:21:23.187Z,993.3
2018-04-25T08:22:25.575Z,993.4
2018-04-25T08:23:28.264Z,993.4
2018-04-25T08:24:30.659Z,993.3
2018-04-25T08:25:33.325Z,993.5
2018-04-25T08:26:35.722Z,993.5
2018-04-25T08:27:38.394Z,993.6
2018-04-25T08:28:41.214Z,993.8
2018-04-25T08:29:43.881Z,993.7
2018-04-25T08:30:46.271Z,993.5
2018-04-25T08:31:48.655Z,993.7
2018-04-25T08:32:51.046Z,993.8
2018-04-25T08:33:53.447Z,993.6
2018-04-25T08:34:55.843Z,993.7
2018-04-25T08:35:58.221Z,993.8
2018-04-25T08:37:00.891Z,993.8
2018-04-25T08:38:03.280Z,993.8
2018-04-25T08:39:05.669Z,993.9
2018-04-25T08:40:08.331Z,993.9
2018-04-25T08:41:10.711Z,993.9
2018-04-25T08:42:13.093Z,993.9
2018-04-25T08:43:15.880Z,994
2018-04-25T08:44:18.263Z,994
2018-04-25T08:45:20.645Z,993.9
2018-04-25T08:46:23.308Z,993.9
2018-04-25T08:47:25.978Z,993.9
2018-04-25T08:48:28.363Z,993.8
2018-04-25T08:49:30.756Z,993.9
2018-04-25T08:50:33.132Z,993.9
2018-04-25T08:51:35.526Z,993.9
2018-04-25T08:52:37.972Z,993.8
2018-04-25T08:53:40.328Z,993.9
2018-04-25T08:54:42.722Z,993.9
2018-04-25T08:55:45.123Z,993.9
2018-04-25T08:56:47.793Z,993.6
2018-04-25T08:57:50.200Z,993.7
2018-04-25T08:58:52.870Z,993.9
2018-04-25T08:59:55.242Z,993.7
2018-04-25T09:00:58.020Z,993.7
2018-04-25T09:02:00.408Z,993.8
2018-04-25T09:03:03.181Z,993.6
2018-04-25T09:04:05.569Z,993.8
2018-04-25T09:05:08.536Z,993.8
2018-04-25T09:06:10.930Z,993.8
2018-04-25T09:07:13.310Z,993.8
2018-04-25T09:08:16.281Z,993.9
2018-04-25T09:09:19.340Z,993.9
2018-04-25T09:10:21.724Z,993.8
2018-04-25T09:11:24.111Z,993.7
2018-04-25T09:12:26.498Z,993.8
2018-04-25T09:13:28.889Z,993.7
2018-04-25T09:14:31.276Z,993.8
2018-04-25T09:15:33.679Z,993.8
2018-04-25T09:16:36.507Z,993.8
2018-04-25T09:17:38.889Z,993.9
2018-04-25T09:18:41.282Z,993.8
2018-04-25T09:19:43.671Z,993.9
2018-04-25T09:20:46.067Z,994
2018-04-25T09:21:48.733Z,993.9
2018-04-25T09:22:51.125Z,993.9
2018-04-25T09:23:53.504Z,994
2018-04-25T09:24:56.544Z,993.8
2018-04-25T09:25:58.951Z,993.9
2018-04-25T09:27:01.335Z,994
2018-04-25T09:28:04.293Z,994.2
2018-04-25T09:29:06.985Z,993.6
2018-04-25T09:30:41.780Z,994
2018-04-25T09:31:45.022Z,994
2018-04-25T09:32:48.074Z,994
2018-04-25T09:33:50.465Z,993.9
2018-04-25T09:34:53.137Z,993.9
2018-04-25T09:35:55.520Z,994
2018-04-25T09:36:57.906Z,994
2018-04-25T09:38:00.303Z,993.9
2018-04-25T09:39:02.963Z,993.9
2018-04-25T09:40:05.633Z,994
2018-04-25T09:41:08.027Z,993.9
2018-04-25T09:42:10.391Z,993.8
2018-04-25T09:43:12.785Z,993.8
2018-04-25T09:44:15.474Z,993.9
2018-04-25T09:45:18.260Z,993.9
2018-04-25T09:46:20.921Z,993.9
2018-04-25T09:47:23.309Z,994
2018-04-25T09:48:25.698Z,994
2018-04-25T09:49:28.099Z,993.9
2018-04-25T09:50:30.477Z,994
2018-04-25T09:51:32.871Z,993.9
2018-04-25T09:52:35.264Z,994
2018-04-25T09:53:37.644Z,993.9
2018-04-25T09:54:40.037Z,993.9
2018-04-25T09:55:42.812Z,994
2018-04-25T09:56:45.191Z,993.9
2018-04-25T09:57:47.619Z,993.8
2018-04-25T09:58:49.970Z,994
2018-04-25T09:59:52.362Z,994
2018-04-25T10:00:54.749Z,994
2018-04-25T10:01:57.139Z,994
2018-04-25T10:02:59.535Z,994
2018-04-25T10:04:01.945Z,993.9
2018-04-25T10:05:05.097Z,993.9
2018-04-25T10:06:07.776Z,994
2018-04-25T10:07:10.157Z,993.7
2018-04-25T10:08:12.547Z,994
2018-04-25T10:09:14.942Z,994.2
2018-04-25T10:10:17.625Z,994.2
2018-04-25T10:11:20.015Z,993.9
2018-04-25T10:12:22.403Z,994.1
2018-04-25T10:13:24.789Z,994.1
2018-04-25T10:14:27.197Z,994
2018-04-25T10:15:29.580Z,994.1
2018-04-25T10:16:32.356Z,994.1
2018-04-25T10:17:34.741Z,994.3
2018-04-25T10:18:37.132Z,994
2018-04-25T10:19:39.526Z,994
2018-04-25T10:20:41.919Z,994.4
2018-04-25T10:21:44.291Z,994.2
2018-04-25T10:22:46.699Z,993.8
2018-04-25T10:23:49.107Z,994.2
2018-04-25T10:24:51.927Z,994.2
2018-04-25T10:25:54.322Z,994.2
2018-04-25T10:26:56.711Z,994.2
2018-04-25T10:27:59.099Z,994.3
2018-04-25T10:29:01.500Z,994.2
2018-04-25T10:30:03.876Z,994.2
2018-04-25T10:31:06.278Z,994.2
2018-04-25T10:32:08.766Z,994.2
2018-04-25T10:33:11.347Z,994.2
2018-04-25T10:34:13.736Z,994.2
2018-04-25T10:35:16.121Z,994.1
2018-04-25T10:36:19.102Z,994.2
2018-04-25T10:37:21.766Z,994.3
2018-04-25T10:38:24.197Z,994.5
2018-04-25T10:39:26.594Z,994.3
2018-04-25T10:40:28.996Z,994.5
2018-04-25T10:41:31.740Z,994.4
2018-04-25T10:42:34.137Z,994.6
2018-04-25T10:43:36.525Z,994.4
2018-04-25T10:44:39.299Z,994.5
2018-04-25T10:45:41.681Z,994.6
2018-04-25T10:46:44.070Z,994.5
2018-04-25T10:47:46.453Z,994.6
2018-04-25T10:48:48.844Z,994.5
2018-04-25T10:49:51.625Z,994.4
2018-04-25T10:50:54.011Z,994.5
2018-04-25T10:51:56.395Z,994.5
2018-04-25T10:52:58.779Z,994.6
2018-04-25T10:54:01.829Z,994.8
2018-04-25T10:55:04.894Z,994.7
2018-04-25T10:56:07.269Z,994.7
2018-04-25T10:57:09.675Z,994.7
2018-04-25T10:58:12.382Z,994.8
2018-04-25T10:59:14.784Z,994.9
2018-04-25T11:00:17.185Z,994.7
2018-04-25T11:01:19.587Z,994.6
2018-04-25T11:02:21.995Z,994.9
2018-04-25T11:03:24.811Z,995
2018-04-25T11:04:27.202Z,995
2018-04-25T11:05:29.874Z,995.2
2018-04-25T11:06:32.263Z,995.1
2018-04-25T11:07:34.935Z,995.1
2018-04-25T11:08:37.625Z,995
2018-04-25T11:09:40.017Z,995.1
2018-04-25T11:10:42.790Z,995.2
2018-04-25T11:11:45.182Z,995.1
2018-04-25T11:12:47.853Z,995.1
2018-04-25T11:13:50.244Z,995.1
2018-04-25T11:14:52.620Z,995.1
2018-04-25T11:15:55.010Z,995.4
2018-04-25T11:16:57.394Z,995.3
2018-04-25T11:17:59.785Z,995.4
2018-04-25T11:19:02.167Z,995.5
2018-04-25T11:20:04.949Z,995.2
2018-04-25T11:21:08.022Z,995.7
2018-04-25T11:22:10.415Z,995.6
2018-04-25T11:23:12.794Z,995.5
2018-04-25T11:24:15.176Z,995.5
2018-04-25T11:25:17.566Z,995.6
2018-04-25T11:26:20.238Z,995.6
2018-04-25T11:27:22.617Z,995.7
2018-04-25T11:28:25.005Z,995.7
2018-04-25T11:29:27.381Z,995.6
2018-04-25T11:30:29.787Z,995.7
2018-04-25T11:31:32.452Z,995.7
2018-04-25T11:32:34.844Z,995.7
2018-04-25T11:33:37.894Z,995.7
2018-04-25T11:34:40.557Z,995.8
2018-04-25T11:35:43.222Z,995.9
2018-04-25T11:36:45.607Z,995.9
2018-04-25T11:37:48.392Z,996
2018-04-25T11:38:50.782Z,996
2018-04-25T11:39:53.152Z,995.8
2018-04-25T11:40:55.546Z,995.9
2018-04-25T11:41:57.929Z,996
2018-04-25T11:43:00.351Z,996
2018-04-25T11:44:03.039Z,996.1
2018-04-25T11:45:05.420Z,996.1
2018-04-25T11:46:07.804Z,996.1
2018-04-25T11:47:10.245Z,996.2
2018-04-25T11:48:13.000Z,996.1
2018-04-25T11:49:15.388Z,996.3
2018-04-25T11:50:17.769Z,996.2
2018-04-25T11:51:20.150Z,996.3
2018-04-25T11:52:22.546Z,996.2
2018-04-25T11:53:24.936Z,996.3
2018-04-25T11:54:27.588Z,996.3
2018-04-25T11:55:29.986Z,996.3
2018-04-25T11:56:32.365Z,996.3
2018-04-25T11:57:34.767Z,996.3
2018-04-25T11:58:37.148Z,996.4
2018-04-25T11:59:39.545Z,996.5
2018-04-25T12:00:41.916Z,996.6
2018-04-25T12:01:44.319Z,996.6
2018-04-25T12:02:46.737Z,996.7
2018-04-25T12:03:49.072Z,996.7
2018-04-25T12:04:51.553Z,996.6
2018-04-25T12:05:53.855Z,996.7
2018-04-25T12:06:56.236Z,996.7
2018-04-25T12:07:59.007Z,996.8
2018-04-25T12:09:01.402Z,996.8
2018-04-25T12:10:04.164Z,996.9
2018-04-25T12:11:06.842Z,996.7
2018-04-25T12:12:09.235Z,996.9
2018-04-25T12:13:11.643Z,996.7
2018-04-25T12:14:14.707Z,996.8
2018-04-25T12:15:17.095Z,996.9
2018-04-25T12:16:19.762Z,996.9
2018-04-25T12:17:22.159Z,997
2018-04-25T12:18:24.817Z,997.1
2018-04-25T12:19:27.583Z,997.1
2018-04-25T12:20:29.995Z,997.1
2018-04-25T12:21:32.944Z,997.1
2018-04-25T12:22:35.354Z,997.2
2018-04-25T12:23:37.831Z,997.3
2018-04-25T12:24:40.650Z,997.4
2018-04-25T12:25:43.050Z,997.3
2018-04-25T12:26:46.261Z,997.4
2018-04-25T12:27:48.653Z,997.6
2018-04-25T12:28:51.619Z,997.6
2018-04-25T12:29:54.360Z,997.6
2018-04-25T12:30:57.558Z,997.7
2018-04-25T12:32:00.000Z,997.8
2018-04-25T12:33:02.387Z,997.9
2018-04-25T12:34:05.235Z,997.8
2018-04-25T12:35:08.132Z,998.1
2018-04-25T12:36:10.667Z,998
2018-04-25T12:37:13.075Z,998
2018-04-25T12:38:15.868Z,998.1
2018-04-25T12:39:18.547Z,998.1
2018-04-25T12:40:21.276Z,998.1
2018-04-25T12:41:23.661Z,998
2018-04-25T12:42:26.639Z,998.2
2018-04-25T12:43:29.046Z,998.1
2018-04-25T12:44:31.791Z,998.3
2018-04-25T12:45:34.172Z,998.1
2018-04-25T12:46:37.239Z,998.4
2018-04-25T12:47:39.624Z,998.2
2018-04-25T12:48:42.935Z,998.3
2018-04-25T12:49:45.786Z,998.4
2018-04-25T12:50:48.225Z,998.4
2018-04-25T12:51:51.366Z,998.4
2018-04-25T12:52:54.890Z,998.5
2018-04-25T12:53:58.195Z,998.6
2018-04-25T12:55:01.352Z,998.6
2018-04-25T12:56:04.072Z,998.6
2018-04-25T12:57:06.872Z,998.6
2018-04-25T12:58:09.416Z,998.8
2018-04-25T12:59:12.528Z,998.7
2018-04-25T13:00:15.176Z,998.7
2018-04-25T13:01:18.219Z,998.8
2018-04-25T13:02:20.605Z,998.8
2018-04-25T13:03:24.843Z,998.9
2018-04-25T13:04:28.835Z,998.8
2018-04-25T13:05:31.230Z,998.8
2018-04-25T13:06:34.126Z,998.8
2018-04-25T13:07:36.538Z,998.9
2018-04-25T13:08:39.563Z,998.9
2018-04-25T13:09:42.016Z,999
2018-04-25T13:10:44.465Z,998.9
2018-04-25T13:11:46.847Z,999.1
2018-04-25T13:12:49.237Z,999.2
2018-04-25T13:13:51.627Z,999
2018-04-25T13:14:54.017Z,999.1
2018-04-25T13:15:56.685Z,999.1
2018-04-25T13:16:59.076Z,999.2
2018-04-25T13:18:01.842Z,999.2
2018-04-25T13:19:04.509Z,999.2
2018-04-25T13:20:06.902Z,999.3
2018-04-25T13:21:09.279Z,999.3
2018-04-25T13:22:11.655Z,999.3
2018-04-25T13:23:14.039Z,999.3
2018-04-25T13:24:16.425Z,999.4
2018-04-25T13:25:19.385Z,999.4
2018-04-25T13:26:22.125Z,999.4
2018-04-25T13:27:24.441Z,999.5
2018-04-25T13:28:26.824Z,999.5
2018-04-25T13:29:29.221Z,999.5